West Alton, New Hampshire
Current Conditions -  °F | °C
As of 9:15 AM on Wednesday 26 Nov 2014 (Local Time) from KLCI Reporting Station
Overcast Overcast  
Wind Chill: 39°   Ceiling: 11000
Heat Index: 39°   Visibility: 10mi
Dew Point: 21°   Wind: 3mph
Humidity: 49%   Direction: 330°NNW
Pressure: 30.17"   Gusts: NA
Location:  43.4879°N, 71.2495°W
Report Text: KLCI 261415Z AUTO 33003KT 10SM OVC110 04/M06 A3017 RMK AO1
Loading
Personal Weather Stations






























Interactive Weather Map New forecast layout! Learn more

10-Day Weather Forecast

Advertisements
Track Severe Weather on mobile